createdAt,value
2022-11-07T00:01:01.078Z,99230.41
2022-11-07T00:03:32.601Z,99231.09
2022-11-07T00:06:04.476Z,99234.94
2022-11-07T00:08:36.091Z,99239.59
2022-11-07T00:11:08.063Z,99244.53
2022-11-07T00:13:39.598Z,99240.94
2022-11-07T00:16:11.426Z,99239.41
2022-11-07T00:18:43.008Z,99235.69
2022-11-07T00:21:14.608Z,99244.41
2022-11-07T00:23:46.210Z,99229.91
2022-11-07T00:26:17.825Z,99240.00
2022-11-07T00:28:49.620Z,99233.66
2022-11-07T00:31:21.182Z,99233.66
2022-11-07T00:33:52.907Z,99231.16
2022-11-07T00:36:27.583Z,99229.94
2022-11-07T00:39:00.812Z,99232.06
2022-11-07T00:41:33.133Z,99229.84
2022-11-07T00:44:05.136Z,99228.69
2022-11-07T00:46:36.745Z,99244.28
2022-11-07T00:49:08.310Z,99238.91
2022-11-07T00:51:39.912Z,99239.31
2022-11-07T00:54:11.494Z,99242.66
2022-11-07T00:56:43.138Z,99246.78
2022-11-07T00:59:14.684Z,99254.56
2022-11-07T01:01:46.359Z,99256.34
2022-11-07T01:04:36.454Z,99252.03
2022-11-07T01:07:08.080Z,99254.91
2022-11-07T01:09:39.738Z,99249.66
2022-11-07T01:12:11.342Z,99247.72
2022-11-07T01:14:42.923Z,99253.38
2022-11-07T01:17:14.472Z,99254.59
2022-11-07T01:19:46.001Z,99248.19
2022-11-07T01:22:17.583Z,99243.38
2022-11-07T01:24:49.178Z,99241.28
2022-11-07T01:27:20.734Z,99241.81
2022-11-07T01:29:52.318Z,99232.44
2022-11-07T01:32:23.906Z,99229.13
2022-11-07T01:34:55.528Z,99221.94
2022-11-07T01:37:27.098Z,99217.91
2022-11-07T01:39:58.647Z,99213.50
2022-11-07T01:42:30.223Z,99220.41
2022-11-07T01:45:01.764Z,99216.63
2022-11-07T01:47:38.702Z,99209.84
2022-11-07T01:50:10.634Z,99206.47
2022-11-07T01:52:44.913Z,99194.56
2022-11-07T01:55:36.854Z,99207.09
2022-11-07T01:58:09.487Z,99211.75
2022-11-07T02:00:41.050Z,99207.72
2022-11-07T02:03:17.665Z,99217.44
2022-11-07T02:05:57.530Z,99218.81
2022-11-07T02:08:32.576Z,99216.41
2022-11-07T02:11:07.964Z,99201.31
2022-11-07T02:13:39.513Z,99210.41
2022-11-07T02:16:11.152Z,99215.66
2022-11-07T02:18:45.010Z,99212.88
2022-11-07T02:21:34.436Z,99211.91
2022-11-07T02:24:09.023Z,99206.66
2022-11-07T02:26:42.238Z,99211.44
2022-11-07T02:29:14.049Z,99211.75
2022-11-07T02:31:45.617Z,99213.94
2022-11-07T02:34:17.230Z,99212.34
2022-11-07T02:36:49.429Z,99205.53
2022-11-07T02:39:21.168Z,99212.13
2022-11-07T02:41:54.816Z,99214.41
2022-11-07T02:44:28.197Z,99210.53
2022-11-07T02:46:59.798Z,99212.97
2022-11-07T02:49:31.437Z,99213.38
2022-11-07T02:52:03.061Z,99211.25
2022-11-07T02:54:34.706Z,99212.44
2022-11-07T02:57:06.238Z,99219.22
2022-11-07T02:59:37.909Z,99214.94
2022-11-07T03:02:09.963Z,99218.88
2022-11-07T03:04:46.572Z,99220.22
2022-11-07T03:07:20.544Z,99219.25
2022-11-07T03:09:52.133Z,99223.19
2022-11-07T03:12:23.700Z,99215.97
2022-11-07T03:15:00.415Z,99214.66
2022-11-07T03:17:32.041Z,99217.66
2022-11-07T03:20:04.511Z,99223.22
2022-11-07T03:22:38.387Z,99222.09
2022-11-07T03:25:13.040Z,99231.50
2022-11-07T03:27:48.607Z,99237.72
2022-11-07T03:30:20.208Z,99240.03
2022-11-07T03:32:54.328Z,99236.94
2022-11-07T03:35:26.379Z,99235.81
2022-11-07T03:37:57.987Z,99237.75
2022-11-07T03:40:29.609Z,99247.63
2022-11-07T03:43:01.181Z,99248.59
2022-11-07T03:45:32.840Z,99250.19
2022-11-07T03:48:04.492Z,99252.81
2022-11-07T03:50:36.184Z,99247.72
2022-11-07T03:53:10.459Z,99249.00
2022-11-07T03:55:43.370Z,99242.88
2022-11-07T03:58:14.939Z,99248.41
2022-11-07T04:00:46.539Z,99242.03
2022-11-07T04:03:18.219Z,99238.72
2022-11-07T04:05:49.861Z,99242.34
2022-11-07T04:08:22.574Z,99242.34
2022-11-07T04:10:54.260Z,99240.69
2022-11-07T04:13:44.566Z,99242.47
2022-11-07T04:16:37.459Z,99246.13
2022-11-07T04:19:09.042Z,99242.81
2022-11-07T04:21:40.636Z,99242.59
2022-11-07T04:24:12.220Z,99241.53
2022-11-07T04:27:02.374Z,99238.53
2022-11-07T04:29:33.970Z,99228.34
2022-11-07T04:32:05.627Z,99225.72
2022-11-07T04:34:38.613Z,99230.97
2022-11-07T04:37:10.229Z,99232.44
2022-11-07T04:39:41.794Z,99231.47
2022-11-07T04:42:13.399Z,99232.31
2022-11-07T04:44:44.967Z,99232.59
2022-11-07T04:47:16.532Z,99230.28
2022-11-07T04:49:48.158Z,99228.16
2022-11-07T04:52:19.704Z,99233.28
2022-11-07T04:54:51.224Z,99243.50
2022-11-07T04:57:22.853Z,99245.66
2022-11-07T04:59:54.434Z,99248.16
2022-11-07T05:02:26.233Z,99248.16
2022-11-07T05:04:57.920Z,99252.72
2022-11-07T05:07:29.504Z,99256.47
2022-11-07T05:10:01.130Z,99260.84
2022-11-07T05:12:33.137Z,99256.06
2022-11-07T05:15:05.216Z,99271.28
2022-11-07T05:17:36.912Z,99267.00
2022-11-07T05:20:32.752Z,99277.66
2022-11-07T05:23:22.096Z,99280.91
2022-11-07T05:25:54.768Z,99285.91
2022-11-07T05:28:38.613Z,99283.56
2022-11-07T05:31:18.121Z,99290.63
2022-11-07T05:33:49.731Z,99302.25
2022-11-07T05:36:23.609Z,99291.75
2022-11-07T05:38:55.155Z,99291.75
2022-11-07T05:41:26.756Z,99289.13
2022-11-07T05:43:58.756Z,99302.41
2022-11-07T05:46:30.369Z,99302.72
2022-11-07T05:49:01.927Z,99302.84
2022-11-07T05:51:33.518Z,99308.25
2022-11-07T05:54:05.168Z,99316.56
2022-11-07T05:56:37.528Z,99314.91
2022-11-07T05:59:09.471Z,99318.66
2022-11-07T06:01:41.521Z,99330.56
2022-11-07T06:04:13.166Z,99329.34
2022-11-07T06:06:44.809Z,99338.94
2022-11-07T06:09:16.412Z,99341.00
2022-11-07T06:11:53.859Z,99337.16
2022-11-07T06:14:25.471Z,99353.22
2022-11-07T06:16:57.074Z,99356.81
2022-11-07T06:19:28.647Z,99345.78
2022-11-07T06:22:04.043Z,99352.13
2022-11-07T06:24:35.620Z,99347.31
2022-11-07T06:27:07.280Z,99363.00
2022-11-07T06:29:38.863Z,99363.38
2022-11-07T06:32:10.548Z,99367.22
2022-11-07T06:34:42.176Z,99371.22
2022-11-07T06:37:13.729Z,99371.06
2022-11-07T06:39:45.360Z,99366.88
2022-11-07T06:42:17.011Z,99379.06
2022-11-07T06:44:48.599Z,99368.53
2022-11-07T06:47:20.326Z,99379.53
2022-11-07T06:49:51.919Z,99372.06
2022-11-07T06:52:23.528Z,99372.31
2022-11-07T06:54:56.154Z,99373.34
2022-11-07T06:57:27.775Z,99378.84
2022-11-07T06:59:59.563Z,99377.13
2022-11-07T07:02:56.725Z,99379.50
2022-11-07T07:05:22.865Z,99379.91
2022-11-07T07:07:55.636Z,99388.41
2022-11-07T07:10:27.417Z,99384.63
2022-11-07T07:13:00.111Z,99384.81
2022-11-07T07:15:49.396Z,99384.41
2022-11-07T07:18:22.478Z,99385.94
2022-11-07T07:21:08.283Z,99380.13
2022-11-07T07:23:40.526Z,99384.03
2022-11-07T07:26:14.699Z,99383.31
2022-11-07T07:28:48.663Z,99378.78
2022-11-07T07:31:29.234Z,99367.25
2022-11-07T07:34:00.860Z,99371.22
2022-11-07T07:36:33.223Z,99366.63
2022-11-07T07:39:04.871Z,99367.38
2022-11-07T07:41:40.403Z,99364.09
2022-11-07T07:44:14.117Z,99373.34
2022-11-07T07:46:45.699Z,99379.88
2022-11-07T07:49:19.705Z,99382.44
2022-11-07T07:51:51.446Z,99386.84
2022-11-07T07:54:23.032Z,99394.13
2022-11-07T07:56:54.704Z,99392.72
2022-11-07T07:59:26.299Z,99399.97
2022-11-07T08:01:58.089Z,99390.66
2022-11-07T08:04:29.787Z,99398.84
2022-11-07T08:07:01.464Z,99398.03
2022-11-07T08:09:36.593Z,99391.41
2022-11-07T08:12:11.711Z,99398.88
2022-11-07T08:14:43.345Z,99392.03
2022-11-07T08:17:16.947Z,99397.00
2022-11-07T08:19:48.495Z,99392.84
2022-11-07T08:22:20.173Z,99383.41
2022-11-07T08:24:51.785Z,99368.25
2022-11-07T08:27:23.711Z,99370.63
2022-11-07T08:29:55.389Z,99372.69
2022-11-07T08:32:27.951Z,99369.13
2022-11-07T08:34:59.583Z,99373.94
2022-11-07T08:37:31.221Z,99368.44
2022-11-07T08:40:03.582Z,99371.09
2022-11-07T08:42:35.190Z,99380.88
2022-11-07T08:45:07.384Z,99383.28
2022-11-07T08:47:38.992Z,99377.34
2022-11-07T08:50:10.591Z,99384.44
2022-11-07T08:52:42.160Z,99388.69
2022-11-07T08:55:13.759Z,99389.03
2022-11-07T08:57:45.427Z,99392.28
2022-11-07T09:00:17.276Z,99390.41
2022-11-07T09:05:41.215Z,99402.59
2022-11-07T09:08:12.898Z,99409.94
2022-11-07T09:10:44.619Z,99406.53
2022-11-07T09:13:16.501Z,99403.47
2022-11-07T09:15:51.493Z,99405.00
2022-11-07T09:18:23.634Z,99409.31
2022-11-07T09:20:55.531Z,99404.16
2022-11-07T09:23:30.359Z,99407.22
2022-11-07T09:26:05.045Z,99414.41
2022-11-07T09:28:45.757Z,99408.81
2022-11-07T09:31:23.591Z,99407.53
2022-11-07T09:33:55.235Z,99405.19
2022-11-07T09:36:27.013Z,99395.38
2022-11-07T09:39:01.083Z,99393.16
2022-11-07T09:41:54.119Z,99399.72
2022-11-07T09:44:43.763Z,99397.16
2022-11-07T09:47:22.364Z,99395.97
2022-11-07T09:49:59.526Z,99398.19
2022-11-07T09:52:31.719Z,99396.31
2022-11-07T09:55:16.977Z,99395.03
2022-11-07T09:57:50.310Z,99410.06
2022-11-07T10:00:23.097Z,99402.41
2022-11-07T10:02:57.291Z,99406.94
2022-11-07T10:05:55.153Z,99410.75
2022-11-07T10:08:45.487Z,99403.88
2022-11-07T10:11:35.530Z,99408.69
2022-11-07T10:14:17.405Z,99404.25
2022-11-07T10:17:02.808Z,99407.06
2022-11-07T10:20:02.196Z,99405.09
2022-11-07T10:22:58.885Z,99398.25
2022-11-07T10:25:39.470Z,99398.16
2022-11-07T10:28:16.910Z,99400.09
2022-11-07T10:30:51.303Z,99391.41
2022-11-07T10:33:32.779Z,99389.88
2022-11-07T10:36:24.893Z,99390.13
2022-11-07T10:38:56.754Z,99389.44
2022-11-07T10:41:31.778Z,99386.47
2022-11-07T10:44:13.576Z,99388.53
2022-11-07T10:46:50.058Z,99394.38
2022-11-07T10:49:29.173Z,99390.19
2022-11-07T10:52:18.451Z,99388.84
2022-11-07T10:54:50.254Z,99384.66
2022-11-07T10:57:23.523Z,99388.66
2022-11-07T10:59:57.473Z,99385.84
2022-11-07T11:02:31.403Z,99380.53
2022-11-07T11:05:04.241Z,99383.47
2022-11-07T11:07:39.860Z,99381.25
2022-11-07T11:10:18.560Z,99375.94
2022-11-07T11:12:50.466Z,99370.31
2022-11-07T11:15:25.033Z,99376.69
2022-11-07T11:18:02.729Z,99376.19
2022-11-07T11:20:44.762Z,99378.13
2022-11-07T11:23:22.256Z,99369.56
2022-11-07T11:26:01.451Z,99369.00
2022-11-07T11:28:39.082Z,99361.31
2022-11-07T11:31:21.763Z,99358.31
2022-11-07T11:34:19.493Z,99359.25
2022-11-07T11:37:01.787Z,99363.50
2022-11-07T11:39:58.256Z,99349.00
2022-11-07T11:42:51.178Z,99352.28
2022-11-07T11:45:40.576Z,99354.50
2022-11-07T11:48:25.592Z,99339.59
2022-11-07T11:51:02.338Z,99353.34
2022-11-07T11:53:34.108Z,99347.66
2022-11-07T11:56:08.938Z,99347.16
2022-11-07T11:59:24.320Z,99350.94
2022-11-07T12:02:01.593Z,99349.50
2022-11-07T12:05:22.468Z,99355.06
2022-11-07T12:08:12.870Z,99344.00
2022-11-07T12:11:05.618Z,99352.94
2022-11-07T12:13:49.677Z,99348.72
2022-11-07T12:16:51.125Z,99336.66
2022-11-07T12:19:41.252Z,99344.25
2022-11-07T12:22:28.912Z,99335.03
2022-11-07T12:25:08.648Z,99336.19
2022-11-07T12:27:54.274Z,99335.28
2022-11-07T12:30:50.215Z,99332.25
2022-11-07T12:33:45.338Z,99328.19
2022-11-07T12:36:29.452Z,99322.47
2022-11-07T12:39:19.376Z,99326.66
2022-11-07T12:41:57.718Z,99320.34
2022-11-07T12:44:38.068Z,99331.56
2022-11-07T12:47:38.416Z,99331.03
2022-11-07T12:50:16.422Z,99331.69
2022-11-07T12:53:11.972Z,99337.13
2022-11-07T12:56:00.444Z,99341.78
2022-11-07T12:58:35.337Z,99339.34
2022-11-07T13:01:07.921Z,99334.63
2022-11-07T13:03:50.220Z,99329.53
2022-11-07T13:06:30.852Z,99340.63
2022-11-07T13:09:11.383Z,99337.78
2022-11-07T13:12:22.155Z,99342.75
2022-11-07T13:14:54.589Z,99342.75
2022-11-07T13:17:37.647Z,99333.69
2022-11-07T13:20:21.276Z,99336.47
2022-11-07T13:22:55.541Z,99333.56
2022-11-07T13:25:32.892Z,99335.88
2022-11-07T13:28:26.799Z,99337.78
2022-11-07T13:31:03.567Z,99341.38
2022-11-07T13:33:38.277Z,99340.81
2022-11-07T13:36:14.536Z,99346.78
2022-11-07T13:38:53.247Z,99340.25
2022-11-07T13:41:25.348Z,99346.66
2022-11-07T13:44:01.379Z,99348.94
2022-11-07T13:46:43.017Z,99349.81
2022-11-07T13:49:20.714Z,99349.63
2022-11-07T13:51:54.183Z,99354.56
2022-11-07T13:54:39.280Z,99355.97
2022-11-07T13:57:17.932Z,99359.06
2022-11-07T14:00:14.440Z,99359.25
2022-11-07T14:02:54.842Z,99356.16
2022-11-07T14:05:36.284Z,99352.91
2022-11-07T14:08:25.713Z,99365.78
2022-11-07T14:10:57.567Z,99370.88
2022-11-07T14:13:40.672Z,99362.66
2022-11-07T14:16:27.247Z,99361.84
2022-11-07T14:19:15.760Z,99367.16
2022-11-07T14:21:47.523Z,99370.44
2022-11-07T14:24:23.876Z,99358.53
2022-11-07T14:27:00.919Z,99351.69
2022-11-07T14:29:32.624Z,99352.66
2022-11-07T14:32:07.373Z,99358.38
2022-11-07T14:34:45.216Z,99364.44
2022-11-07T14:37:20.588Z,99365.03
2022-11-07T14:39:52.697Z,99370.38
2022-11-07T14:42:25.356Z,99363.22
2022-11-07T14:44:57.818Z,99372.59
2022-11-07T14:47:33.033Z,99375.88
2022-11-07T14:50:05.993Z,99365.00
2022-11-07T14:52:40.662Z,99363.53
2022-11-07T14:55:20.724Z,99357.81
2022-11-07T14:57:52.536Z,99363.25
2022-11-07T15:00:24.431Z,99366.88
2022-11-07T15:02:57.884Z,99369.72
2022-11-07T15:05:38.258Z,99361.22
2022-11-07T15:08:27.737Z,99365.06
2022-11-07T15:11:26.975Z,99360.69
2022-11-07T15:14:04.090Z,99362.44
2022-11-07T15:16:45.849Z,99361.59
2022-11-07T15:19:23.379Z,99363.78
2022-11-07T15:22:00.985Z,99362.38
2022-11-07T15:24:40.174Z,99369.03
2022-11-07T15:27:18.754Z,99372.09
2022-11-07T15:29:59.007Z,99368.56
2022-11-07T15:32:35.233Z,99371.56
2022-11-07T15:35:43.021Z,99374.63
2022-11-07T15:38:17.417Z,99371.53
2022-11-07T15:40:49.936Z,99371.91
2022-11-07T15:43:22.172Z,99382.91
2022-11-07T15:45:54.139Z,99390.41
2022-11-07T15:48:36.909Z,99399.59
2022-11-07T15:51:12.015Z,99398.31
2022-11-07T15:53:43.691Z,99394.81
2022-11-07T15:56:17.340Z,99399.88
2022-11-07T15:58:49.656Z,99392.91
2022-11-07T16:01:22.920Z,99392.13
2022-11-07T16:03:55.375Z,99402.28
2022-11-07T16:06:33.434Z,99388.56
2022-11-07T16:09:13.326Z,99389.31
2022-11-07T16:11:45.769Z,99382.94
2022-11-07T16:14:42.778Z,99383.66
2022-11-07T16:17:16.752Z,99389.06
2022-11-07T16:19:48.395Z,99387.81
2022-11-07T16:22:20.102Z,99379.75
2022-11-07T16:24:51.677Z,99384.63
2022-11-07T16:27:23.463Z,99386.16
2022-11-07T16:29:55.046Z,99380.09
2022-11-07T16:32:26.702Z,99387.78
2022-11-07T16:34:58.304Z,99390.19
2022-11-07T16:37:29.949Z,99394.19
2022-11-07T16:40:01.518Z,99393.06
2022-11-07T16:42:33.419Z,99396.66
2022-11-07T16:45:05.413Z,99391.88
2022-11-07T16:47:38.644Z,99399.56
2022-11-07T16:50:13.732Z,99393.63
2022-11-07T16:52:45.425Z,99398.44
2022-11-07T16:55:18.490Z,99399.44
2022-11-07T16:57:50.161Z,99393.69
2022-11-07T17:00:23.619Z,99410.59
2022-11-07T17:02:55.313Z,99407.28
2022-11-07T17:05:27.074Z,99404.19
2022-11-07T17:08:01.307Z,99407.56
2022-11-07T17:10:35.718Z,99416.06
2022-11-07T17:13:07.703Z,99408.81
2022-11-07T17:15:40.964Z,99411.00
2022-11-07T17:18:21.042Z,99413.53
2022-11-07T17:20:54.082Z,99412.22
2022-11-07T17:23:30.195Z,99409.28
2022-11-07T17:26:02.817Z,99406.34
2022-11-07T17:28:34.441Z,99413.84
2022-11-07T17:31:06.010Z,99417.66
2022-11-07T17:33:37.646Z,99416.38
2022-11-07T17:36:23.784Z,99425.31
2022-11-07T17:38:58.548Z,99420.53
2022-11-07T17:41:30.536Z,99426.53
2022-11-07T17:44:03.732Z,99423.41
2022-11-07T17:46:36.489Z,99432.69
2022-11-07T17:49:09.053Z,99435.72
2022-11-07T17:51:42.052Z,99432.03
2022-11-07T17:54:15.090Z,99430.88
2022-11-07T17:56:46.712Z,99438.66
2022-11-07T17:59:18.819Z,99436.00
2022-11-07T18:01:50.516Z,99437.81
2022-11-07T18:04:22.213Z,99443.13
2022-11-07T18:06:53.809Z,99438.66
2022-11-07T18:09:26.009Z,99438.81
2022-11-07T18:11:57.577Z,99436.84
2022-11-07T18:14:29.188Z,99434.00
2022-11-07T18:17:01.195Z,99435.63
2022-11-07T18:19:33.069Z,99431.19
2022-11-07T18:22:04.739Z,99426.72
2022-11-07T18:24:36.461Z,99427.38
2022-11-07T18:27:10.416Z,99428.34
2022-11-07T18:29:42.507Z,99429.34
2022-11-07T18:32:14.244Z,99431.84
2022-11-07T18:34:45.885Z,99426.19
2022-11-07T18:37:18.785Z,99426.19
2022-11-07T18:39:50.695Z,99424.19
2022-11-07T18:42:22.570Z,99423.00
2022-11-07T18:44:54.183Z,99415.72
2022-11-07T18:47:25.835Z,99420.84
2022-11-07T18:49:57.713Z,99422.66
2022-11-07T18:52:31.442Z,99430.22
2022-11-07T18:55:03.343Z,99437.34
2022-11-07T18:57:35.253Z,99436.34
2022-11-07T19:00:12.235Z,99431.88
2022-11-07T19:02:47.832Z,99436.34
2022-11-07T19:05:20.234Z,99440.81
2022-11-07T19:07:53.152Z,99436.56
2022-11-07T19:10:25.278Z,99437.72
2022-11-07T19:12:57.124Z,99442.56
2022-11-07T19:15:30.629Z,99437.75
2022-11-07T19:18:02.214Z,99438.28
2022-11-07T19:20:33.857Z,99448.41
2022-11-07T19:23:08.355Z,99448.75
2022-11-07T19:25:41.408Z,99451.75
2022-11-07T19:28:12.981Z,99448.94
2022-11-07T19:30:44.880Z,99448.94
2022-11-07T19:33:20.559Z,99450.56
2022-11-07T19:36:00.214Z,99462.16
2022-11-07T19:38:31.857Z,99451.06
2022-11-07T19:41:05.872Z,99455.81
2022-11-07T19:43:42.521Z,99462.78
2022-11-07T19:46:24.775Z,99465.06
2022-11-07T19:48:56.699Z,99465.53
2022-11-07T19:51:28.308Z,99470.66
2022-11-07T19:54:00.652Z,99471.84
2022-11-07T19:56:32.298Z,99475.16
2022-11-07T19:59:03.871Z,99468.00
2022-11-07T20:01:36.375Z,99488.38
2022-11-07T20:04:08.867Z,99479.41
2022-11-07T20:06:40.567Z,99475.94
2022-11-07T20:09:12.937Z,99482.88
2022-11-07T20:11:44.556Z,99485.38
2022-11-07T20:14:16.131Z,99484.38
2022-11-07T20:16:47.819Z,99485.66
2022-11-07T20:19:19.419Z,99487.31
2022-11-07T20:21:53.948Z,99490.97
2022-11-07T20:24:25.551Z,99483.03
2022-11-07T20:26:57.250Z,99481.84
2022-11-07T20:29:28.873Z,99490.63
2022-11-07T20:32:00.522Z,99481.84
2022-11-07T20:34:32.149Z,99487.16
2022-11-07T20:37:04.204Z,99490.63
2022-11-07T20:39:35.965Z,99483.50
2022-11-07T20:42:07.652Z,99486.84
2022-11-07T20:44:40.660Z,99485.72
2022-11-07T20:47:12.405Z,99484.72
2022-11-07T20:49:43.988Z,99487.19
2022-11-07T20:52:17.633Z,99485.19
2022-11-07T20:54:49.281Z,99480.44
2022-11-07T20:57:20.915Z,99484.91
2022-11-07T20:59:52.648Z,99485.72
2022-11-07T21:02:24.441Z,99481.75
2022-11-07T21:05:16.664Z,99484.56
2022-11-07T21:07:48.353Z,99484.13
2022-11-07T21:10:20.122Z,99490.22
2022-11-07T21:12:51.787Z,99492.88
2022-11-07T21:15:23.450Z,99491.38
2022-11-07T21:17:55.080Z,99482.81
2022-11-07T21:20:26.679Z,99483.81
2022-11-07T21:22:58.294Z,99489.94
2022-11-07T21:25:30.159Z,99492.91
2022-11-07T21:28:01.796Z,99488.81
2022-11-07T21:30:33.378Z,99487.44
2022-11-07T21:33:05.311Z,99489.16
2022-11-07T21:35:40.659Z,99492.66
2022-11-07T21:38:12.277Z,99497.47
2022-11-07T21:40:43.838Z,99487.22
2022-11-07T21:43:15.980Z,99485.75
2022-11-07T21:45:47.807Z,99488.56
2022-11-07T21:48:19.460Z,99498.47
2022-11-07T21:50:51.098Z,99497.03
2022-11-07T21:53:22.768Z,99496.69
2022-11-07T21:55:54.338Z,99492.72
2022-11-07T21:58:26.820Z,99498.53
2022-11-07T22:01:05.458Z,99484.34
2022-11-07T22:04:04.447Z,99484.69
2022-11-07T22:06:29.234Z,99492.44
2022-11-07T22:09:01.139Z,99492.78
2022-11-07T22:11:33.052Z,99491.66
2022-11-07T22:14:05.305Z,99496.25
2022-11-07T22:16:36.934Z,99503.38
2022-11-07T22:19:12.544Z,99505.38
2022-11-07T22:21:44.751Z,99501.38
2022-11-07T22:24:16.418Z,99495.31
2022-11-07T22:26:48.031Z,99497.28
2022-11-07T22:29:19.680Z,99496.81
2022-11-07T22:31:51.600Z,99490.03
2022-11-07T22:34:23.264Z,99499.13
2022-11-07T22:36:54.911Z,99496.81
2022-11-07T22:39:26.561Z,99490.22
2022-11-07T22:41:58.158Z,99503.75
2022-11-07T22:44:29.883Z,99504.59
2022-11-07T22:47:01.479Z,99497.97
2022-11-07T22:49:33.090Z,99496.50
2022-11-07T22:52:04.989Z,99496.13
2022-11-07T22:54:36.759Z,99492.03
2022-11-07T22:57:08.411Z,99490.72
2022-11-07T22:59:39.999Z,99488.72
2022-11-07T23:02:11.696Z,99496.13
2022-11-07T23:04:43.451Z,99495.66
2022-11-07T23:07:15.105Z,99500.25
2022-11-07T23:09:46.702Z,99496.97
2022-11-07T23:12:18.285Z,99491.84
2022-11-07T23:14:49.947Z,99490.19
2022-11-07T23:17:22.728Z,99486.72
2022-11-07T23:19:54.869Z,99490.19
2022-11-07T23:22:31.216Z,99483.09
2022-11-07T23:25:04.168Z,99485.22
2022-11-07T23:27:35.849Z,99482.78
2022-11-07T23:30:08.029Z,99486.41
2022-11-07T23:32:41.109Z,99488.38
2022-11-07T23:35:12.830Z,99489.34
2022-11-07T23:37:44.509Z,99480.91
2022-11-07T23:40:19.124Z,99477.59
2022-11-07T23:42:51.063Z,99475.97
2022-11-07T23:45:41.794Z,99475.13
2022-11-07T23:48:32.651Z,99470.84
2022-11-07T23:51:08.983Z,99482.03
2022-11-07T23:53:58.999Z,99486.50
2022-11-07T23:56:30.647Z,99478.88
2022-11-07T23:59:20.972Z,99486.50
